Aérodrome :
LOGIN :

S'inscrire | Disclaimer

   EN    FR    IT 

 










Légende :    VFR   VFR Marginal   IFR   IFR Intensif   IFR Très Intensif
Visi : 
Plafond : 
>= 8 km
>= 3000ft
5 à 8 km
1000 à 3000 ft
1500m à 5 km
500 à 1000 ft
800 à 1500m
200 à 500 ft
< 800m
< 200 ft
Symboles :   Orages  Brouillard  Fortes neiges  Fortes précipitations  Vent > 20 kt
SIGMETs :   Divers  Orages  Givrage  Turbulence  Onde Orograph.  Cendres Volcan.






- Altitude de l'aérodrome : 102 ft
- Code IATA : EXT


EGTE - Exeter

DERNIER METAR :
  • 221450Z 16008KT 9999 SCT045 17/08 Q1011

METARs EXPIRÉS :
  • 221420Z 16007KT 9999 FEW048 18/10 Q1012
  • 221350Z 17008KT 120V210 9999 FEW045 20/10 Q1012
  • 221320Z 17008KT 9999 FEW045 20/10 Q1012
  • 221250Z 16009KT 130V190 9999 FEW045 20/09 Q1012
  • 221220Z 15010KT 120V190 9999 FEW040 19/09 Q1013

TAF TAF EGTE
Valide du 22 à 15h jusqu'au 23 à 00h UTC


221353Z 2215/2224 16010KT 9999 FEW045
BECMG 2216/2219 28006KT
TEMPO 2218/2224 BKN010
PROB30
TEMPO 2220/2224 BKN006



MET'MAP, la Météo Aéronautique d'un coup d'oeil ! - Copyright ORBIFLY Décembre 2007 - Disclaimer

ORBIFLY MET'MAP TEAM :

Programmation & Développement : Alexandra Zaïnal
Sur une idée originale de : Baudouin d'Aumeries
Soutien technique & logistique : Manuel Goepfert
Assistance : Marc-Olivier Méhu

Contact : metmap@orbifly.com




SOURCES & CREDITS :

   NOAA